createdAt,value
2022-10-13T00:01:42.362Z,69.07
2022-10-13T00:04:08.706Z,68.99
2022-10-13T00:06:35.097Z,69.22
2022-10-13T00:09:01.483Z,69.99
2022-10-13T00:11:29.756Z,70.08
2022-10-13T00:13:59.141Z,70.93
2022-10-13T00:16:25.924Z,71.45
2022-10-13T00:18:52.512Z,71.49
2022-10-13T00:21:22.711Z,71.45
2022-10-13T00:23:50.081Z,71.39
2022-10-13T00:26:17.402Z,70.98
2022-10-13T00:28:48.465Z,70.75
2022-10-13T00:31:20.839Z,71.24
2022-10-13T00:33:47.367Z,70.82
2022-10-13T00:36:13.757Z,70.36
2022-10-13T00:38:40.140Z,70.26
2022-10-13T00:41:07.150Z,69.77
2022-10-13T00:43:52.073Z,69.62
2022-10-13T00:46:18.517Z,69.87
2022-10-13T00:48:46.023Z,69.53
2022-10-13T00:51:14.797Z,69.44
2022-10-13T00:53:42.143Z,69.07
2022-10-13T00:56:11.431Z,69.14
2022-10-13T00:58:40.512Z,69.29
2022-10-13T01:01:07.639Z,69.09
2022-10-13T01:03:35.089Z,68.96
2022-10-13T01:06:04.793Z,68.56
2022-10-13T01:08:32.114Z,68.98
2022-10-13T01:11:12.344Z,68.65
2022-10-13T01:13:49.727Z,68.73
2022-10-13T01:16:26.425Z,68.75
2022-10-13T01:19:16.676Z,68.85
2022-10-13T01:22:09.406Z,69.04
2022-10-13T01:24:44.783Z,70.42
2022-10-13T01:27:22.709Z,70.53
2022-10-13T01:30:07.841Z,70.29
2022-10-13T01:33:06.000Z,70.48
2022-10-13T01:35:58.089Z,70.30
2022-10-13T01:38:37.014Z,70.43
2022-10-13T01:41:28.571Z,70.11
2022-10-13T01:44:08.441Z,69.96
2022-10-13T01:46:37.899Z,69.80
2022-10-13T01:49:12.072Z,69.90
2022-10-13T01:51:39.613Z,70.37
2022-10-13T01:54:06.148Z,70.17
2022-10-13T01:56:32.626Z,70.68
2022-10-13T01:59:02.889Z,70.66
2022-10-13T02:01:56.261Z,70.76
2022-10-13T02:04:48.858Z,71.08
2022-10-13T02:07:21.225Z,71.50
2022-10-13T02:09:57.195Z,71.60
2022-10-13T02:12:34.530Z,71.63
2022-10-13T02:15:02.355Z,71.77
2022-10-13T02:17:30.821Z,72.35
2022-10-13T02:19:57.962Z,72.21
2022-10-13T02:22:31.063Z,72.01
2022-10-13T02:24:57.594Z,71.62
2022-10-13T02:27:24.164Z,71.73
2022-10-13T02:29:52.822Z,71.91
2022-10-13T02:32:19.723Z,71.48
2022-10-13T02:34:46.334Z,71.15
2022-10-13T02:37:12.728Z,71.31
2022-10-13T02:39:39.049Z,71.44
2022-10-13T02:42:05.799Z,71.74
2022-10-13T02:44:32.503Z,72.12
2022-10-13T02:46:58.981Z,72.10
2022-10-13T02:49:25.349Z,72.13
2022-10-13T02:51:53.292Z,71.99
2022-10-13T02:54:19.845Z,72.60
2022-10-13T02:56:46.446Z,72.42
2022-10-13T02:59:12.884Z,72.72
2022-10-13T03:01:41.666Z,73.28
2022-10-13T03:04:08.855Z,72.75
2022-10-13T03:06:35.488Z,73.28
2022-10-13T03:09:02.844Z,73.36
2022-10-13T03:11:29.316Z,73.45
2022-10-13T03:13:55.780Z,73.41
2022-10-13T03:16:22.424Z,73.48
2022-10-13T03:18:48.785Z,73.41
2022-10-13T03:21:15.564Z,73.42
2022-10-13T03:23:41.969Z,73.53
2022-10-13T03:26:08.352Z,73.72
2022-10-13T03:28:34.845Z,73.80
2022-10-13T03:31:03.245Z,74.19
2022-10-13T03:33:29.859Z,74.24
2022-10-13T03:35:59.338Z,74.41
2022-10-13T03:38:25.911Z,74.43
2022-10-13T03:40:52.342Z,74.47
2022-10-13T03:43:18.728Z,74.19
2022-10-13T03:45:45.070Z,74.81
2022-10-13T03:48:11.440Z,74.91
2022-10-13T03:50:37.782Z,74.91
2022-10-13T03:53:04.091Z,74.83
2022-10-13T03:55:30.433Z,75.14
2022-10-13T03:57:56.757Z,75.03
2022-10-13T04:00:23.247Z,75.23
2022-10-13T04:02:49.792Z,74.76
2022-10-13T04:05:16.635Z,75.13
2022-10-13T04:07:43.027Z,74.92
2022-10-13T04:10:11.489Z,75.54
2022-10-13T04:12:37.993Z,75.55
2022-10-13T04:15:04.709Z,75.72
2022-10-13T04:17:31.051Z,75.53
2022-10-13T04:19:57.462Z,75.39
2022-10-13T04:22:23.809Z,75.42
2022-10-13T04:24:50.330Z,75.14
2022-10-13T04:27:18.966Z,75.48
2022-10-13T04:29:45.385Z,75.67
2022-10-13T04:32:11.716Z,75.63
2022-10-13T04:34:38.076Z,75.95
2022-10-13T04:37:04.459Z,75.83
2022-10-13T04:39:30.855Z,75.83
2022-10-13T04:41:57.286Z,75.63
2022-10-13T04:44:23.752Z,75.71
2022-10-13T04:46:50.091Z,75.58
2022-10-13T04:49:17.191Z,75.59
2022-10-13T04:51:43.531Z,76.06
2022-10-13T04:54:10.135Z,76.32
2022-10-13T04:56:36.745Z,76.19
2022-10-13T04:59:05.703Z,76.72
2022-10-13T05:01:33.306Z,76.09
2022-10-13T05:04:01.559Z,76.45
2022-10-13T05:06:58.782Z,76.15
2022-10-13T05:09:27.110Z,75.69
2022-10-13T05:11:55.070Z,75.96
2022-10-13T05:14:22.131Z,76.20
2022-10-13T05:16:49.201Z,75.95
2022-10-13T05:19:15.642Z,76.02
2022-10-13T05:21:42.277Z,75.67
2022-10-13T05:24:13.519Z,75.90
2022-10-13T05:26:40.138Z,75.87
2022-10-13T05:29:06.462Z,75.96
2022-10-13T05:31:35.133Z,75.69
2022-10-13T05:34:01.877Z,76.06
2022-10-13T05:36:31.177Z,75.89
2022-10-13T05:39:00.262Z,76.33
2022-10-13T05:41:28.866Z,76.09
2022-10-13T05:43:58.973Z,75.59
2022-10-13T05:46:25.460Z,75.57
2022-10-13T05:48:52.050Z,75.72
2022-10-13T05:51:27.765Z,75.65
2022-10-13T05:54:09.535Z,75.71
2022-10-13T05:56:44.766Z,75.88
2022-10-13T05:59:15.639Z,75.62
2022-10-13T06:01:42.389Z,75.50
2022-10-13T06:04:17.345Z,75.63
2022-10-13T06:06:44.078Z,75.86
2022-10-13T06:09:10.615Z,75.75
2022-10-13T06:11:36.923Z,75.72
2022-10-13T06:14:03.311Z,75.69
2022-10-13T06:16:29.686Z,75.66
2022-10-13T06:18:56.115Z,75.79
2022-10-13T06:21:22.480Z,76.08
2022-10-13T06:23:48.805Z,76.04
2022-10-13T06:26:15.187Z,76.20
2022-10-13T06:28:43.330Z,76.46
2022-10-13T06:31:11.544Z,76.25
2022-10-13T06:33:38.053Z,75.93
2022-10-13T06:36:06.006Z,75.65
2022-10-13T06:38:33.372Z,75.63
2022-10-13T06:41:04.489Z,75.21
2022-10-13T06:43:38.719Z,75.25
2022-10-13T06:46:06.851Z,75.22
2022-10-13T06:48:33.326Z,74.84
2022-10-13T06:51:08.372Z,74.46
2022-10-13T06:53:35.283Z,73.74
2022-10-13T06:56:04.332Z,73.71
2022-10-13T06:58:30.814Z,73.82
2022-10-13T07:00:57.286Z,73.34
2022-10-13T07:03:24.998Z,73.90
2022-10-13T07:05:51.424Z,74.19
2022-10-13T07:08:17.753Z,73.95
2022-10-13T07:10:44.063Z,73.62
2022-10-13T07:13:10.585Z,73.17
2022-10-13T07:15:39.111Z,73.63
2022-10-13T07:18:05.927Z,73.62
2022-10-13T07:20:32.291Z,73.94
2022-10-13T07:22:58.677Z,74.07
2022-10-13T07:25:25.256Z,74.09
2022-10-13T07:27:51.605Z,73.96
2022-10-13T07:30:18.469Z,73.83
2022-10-13T07:32:44.817Z,73.84
2022-10-13T07:35:12.090Z,73.66
2022-10-13T07:37:38.891Z,73.76
2022-10-13T07:40:06.599Z,73.96
2022-10-13T07:42:33.446Z,73.80
2022-10-13T07:44:59.802Z,74.06
2022-10-13T07:47:26.211Z,74.03
2022-10-13T07:49:54.518Z,73.91
2022-10-13T07:52:21.269Z,73.88
2022-10-13T07:54:50.947Z,73.83
2022-10-13T07:57:17.733Z,73.60
2022-10-13T07:59:44.094Z,73.72
2022-10-13T08:02:10.429Z,74.03
2022-10-13T08:04:37.368Z,74.36
2022-10-13T08:07:05.567Z,74.27
2022-10-13T08:09:31.908Z,74.08
2022-10-13T08:12:00.829Z,74.10
2022-10-13T08:14:29.104Z,74.29
2022-10-13T08:16:55.864Z,74.11
2022-10-13T08:19:22.510Z,74.08
2022-10-13T08:21:58.593Z,73.24
2022-10-13T08:24:27.268Z,72.63
2022-10-13T08:26:53.771Z,73.06
2022-10-13T08:29:23.017Z,73.85
2022-10-13T08:31:53.656Z,74.17
2022-10-13T08:34:20.870Z,73.45
2022-10-13T08:36:47.503Z,72.75
2022-10-13T08:39:14.302Z,72.55
2022-10-13T08:41:46.648Z,72.27
2022-10-13T08:47:09.622Z,71.24
2022-10-13T08:49:36.137Z,70.75
2022-10-13T08:52:05.563Z,72.05
2022-10-13T08:54:33.460Z,71.58
2022-10-13T08:59:27.262Z,70.95
2022-10-13T09:01:55.271Z,71.08
2022-10-13T09:04:32.970Z,70.56
2022-10-13T09:07:10.426Z,70.97
2022-10-13T09:09:38.520Z,71.17
2022-10-13T09:12:06.056Z,70.79
2022-10-13T09:14:37.694Z,71.05
2022-10-13T09:17:26.394Z,70.71
2022-10-13T09:20:02.756Z,70.59
2022-10-13T09:22:29.049Z,70.06
2022-10-13T09:25:07.436Z,70.12
2022-10-13T09:27:55.027Z,70.15
2022-10-13T09:30:32.827Z,70.52
2022-10-13T09:33:08.777Z,70.67
2022-10-13T09:35:39.557Z,69.38
2022-10-13T09:38:06.849Z,69.75
2022-10-13T09:40:33.889Z,69.94
2022-10-13T09:43:02.170Z,69.64
2022-10-13T09:45:30.882Z,69.42
2022-10-13T09:48:07.436Z,69.83
2022-10-13T09:50:35.506Z,69.07
2022-10-13T09:53:20.432Z,69.15
2022-10-13T09:55:49.156Z,69.94
2022-10-13T09:58:25.047Z,69.70
2022-10-13T10:00:52.946Z,69.38
2022-10-13T10:03:35.356Z,67.31
2022-10-13T10:06:05.810Z,67.09
2022-10-13T10:09:02.301Z,66.69
2022-10-13T10:11:47.609Z,66.62
2022-10-13T10:14:28.815Z,66.19
2022-10-13T10:17:12.116Z,65.14
2022-10-13T10:19:47.866Z,65.18
2022-10-13T10:22:35.674Z,65.39
2022-10-13T10:25:10.081Z,64.38
2022-10-13T10:27:44.337Z,64.94
2022-10-13T10:30:23.783Z,65.07
2022-10-13T10:33:03.340Z,65.99
2022-10-13T10:35:55.685Z,66.28
2022-10-13T10:38:40.730Z,66.31
2022-10-13T10:41:23.375Z,66.09
2022-10-13T10:43:55.353Z,66.38
2022-10-13T10:46:26.035Z,66.51
2022-10-13T10:48:57.277Z,66.15
2022-10-13T10:51:31.031Z,66.35
2022-10-13T10:54:49.078Z,66.82
2022-10-13T10:57:32.971Z,67.03
2022-10-13T11:00:19.449Z,67.52
2022-10-13T11:03:04.875Z,68.06
2022-10-13T11:05:59.790Z,68.70
2022-10-13T11:08:40.877Z,69.40
2022-10-13T11:11:26.564Z,70.30
2022-10-13T11:13:58.143Z,71.89
2022-10-13T11:16:30.633Z,72.22
2022-10-13T11:19:05.372Z,73.61
2022-10-13T11:21:53.608Z,73.75
2022-10-13T11:24:49.418Z,74.16
2022-10-13T11:27:15.713Z,74.82
2022-10-13T11:29:54.868Z,74.82
2022-10-13T11:32:36.414Z,74.84
2022-10-13T11:35:05.789Z,74.26
2022-10-13T11:37:35.152Z,74.40
2022-10-13T11:40:20.190Z,74.76
2022-10-13T11:42:58.290Z,74.50
2022-10-13T11:45:50.760Z,74.25
2022-10-13T11:48:17.375Z,74.55
2022-10-13T11:51:10.334Z,72.83
2022-10-13T11:53:53.197Z,73.32
2022-10-13T11:56:32.784Z,73.22
2022-10-13T11:58:59.099Z,73.28
2022-10-13T12:01:25.479Z,72.54
2022-10-13T12:03:51.872Z,72.71
2022-10-13T12:06:34.757Z,72.76
2022-10-13T12:09:04.257Z,73.19
2022-10-13T12:11:33.673Z,71.36
2022-10-13T12:14:00.230Z,70.74
2022-10-13T12:16:27.832Z,70.84
2022-10-13T12:19:07.468Z,71.08
2022-10-13T12:21:34.146Z,70.96
2022-10-13T12:24:09.134Z,70.49
2022-10-13T12:26:35.615Z,70.75
2022-10-13T12:29:05.047Z,71.27
2022-10-13T12:31:40.917Z,70.93
2022-10-13T12:34:27.570Z,70.04
2022-10-13T12:36:58.178Z,69.80
2022-10-13T12:39:26.817Z,70.20
2022-10-13T12:41:54.681Z,70.68
2022-10-13T12:44:24.874Z,69.64
2022-10-13T12:46:55.436Z,69.92
2022-10-13T12:49:35.695Z,71.52
2022-10-13T12:52:14.268Z,70.37
2022-10-13T12:54:48.588Z,70.12
2022-10-13T12:57:19.720Z,70.33
2022-10-13T12:59:46.522Z,70.10
2022-10-13T13:02:32.516Z,70.39
2022-10-13T13:04:59.527Z,69.58
2022-10-13T13:07:39.500Z,69.98
2022-10-13T13:10:08.883Z,70.69
2022-10-13T13:12:36.951Z,71.84
2022-10-13T13:15:20.775Z,71.27
2022-10-13T13:18:02.776Z,71.20
2022-10-13T13:20:34.667Z,71.37
2022-10-13T13:23:01.910Z,71.43
2022-10-13T13:25:28.414Z,71.66
2022-10-13T13:27:54.832Z,72.44
2022-10-13T13:30:23.215Z,72.70
2022-10-13T13:32:50.145Z,73.20
2022-10-13T13:35:16.911Z,73.54
2022-10-13T13:37:48.025Z,73.92
2022-10-13T13:40:34.539Z,74.56
2022-10-13T13:43:00.942Z,75.70
2022-10-13T13:45:27.309Z,76.72
2022-10-13T13:47:57.988Z,76.99
2022-10-13T13:50:32.128Z,77.08
2022-10-13T13:52:59.069Z,77.08
2022-10-13T13:55:26.901Z,76.95
2022-10-13T13:57:53.433Z,76.85
2022-10-13T14:00:20.329Z,76.95
2022-10-13T14:02:47.066Z,76.81
2022-10-13T14:05:13.513Z,77.08
2022-10-13T14:07:40.802Z,77.49
2022-10-13T14:10:08.502Z,78.11
2022-10-13T14:12:35.551Z,78.51
2022-10-13T14:15:01.879Z,78.30
2022-10-13T14:17:28.593Z,78.51
2022-10-13T14:19:55.143Z,78.93
2022-10-13T14:22:22.530Z,79.51
2022-10-13T14:24:49.363Z,80.08
2022-10-13T14:27:15.794Z,80.41
2022-10-13T14:29:42.130Z,80.45
2022-10-13T14:32:08.544Z,80.71
2022-10-13T14:34:34.869Z,80.61
2022-10-13T14:37:01.270Z,80.94
2022-10-13T14:39:27.814Z,81.52
2022-10-13T14:41:54.726Z,81.18
2022-10-13T14:44:21.043Z,81.19
2022-10-13T14:46:47.396Z,81.24
2022-10-13T14:49:13.880Z,81.45
2022-10-13T14:51:40.223Z,81.19
2022-10-13T14:54:06.918Z,81.40
2022-10-13T14:56:34.050Z,81.60
2022-10-13T14:59:02.442Z,81.92
2022-10-13T15:01:28.897Z,81.44
2022-10-13T15:03:55.390Z,81.77
2022-10-13T15:06:24.687Z,81.77
2022-10-13T15:08:51.811Z,81.41
2022-10-13T15:11:19.500Z,81.98
2022-10-13T15:13:46.328Z,82.58
2022-10-13T15:16:22.921Z,83.02
2022-10-13T15:18:49.806Z,83.85
2022-10-13T15:21:17.099Z,86.39
2022-10-13T15:23:44.061Z,86.56
2022-10-13T15:26:12.382Z,87.51
2022-10-13T15:28:46.483Z,88.02
2022-10-13T15:31:15.521Z,88.76
2022-10-13T15:33:43.658Z,87.99
2022-10-13T15:36:09.957Z,88.79
2022-10-13T15:38:36.333Z,89.81
2022-10-13T15:41:05.209Z,90.36
2022-10-13T15:43:32.451Z,89.64
2022-10-13T15:46:04.700Z,90.75
2022-10-13T15:48:32.408Z,91.15
2022-10-13T15:50:59.051Z,91.44
2022-10-13T15:53:25.814Z,92.34
2022-10-13T15:55:52.235Z,91.56
2022-10-13T15:58:18.843Z,91.95
2022-10-13T16:00:45.332Z,92.26
2022-10-13T16:03:19.146Z,91.49
2022-10-13T16:05:46.642Z,91.87
2022-10-13T16:08:14.243Z,91.17
2022-10-13T16:10:43.884Z,91.45
2022-10-13T16:13:14.335Z,91.75
2022-10-13T16:15:41.679Z,91.38
2022-10-13T16:18:08.123Z,91.85
2022-10-13T16:20:37.594Z,91.96
2022-10-13T16:23:04.733Z,91.56
2022-10-13T16:25:31.942Z,91.42
2022-10-13T16:27:59.337Z,91.45
2022-10-13T16:30:27.667Z,91.17
2022-10-13T16:32:54.004Z,91.18
2022-10-13T16:35:20.342Z,91.45
2022-10-13T16:37:46.666Z,91.24
2022-10-13T16:40:13.013Z,91.36
2022-10-13T16:42:39.392Z,91.24
2022-10-13T16:45:06.454Z,90.94
2022-10-13T16:47:32.781Z,90.74
2022-10-13T16:49:59.093Z,90.88
2022-10-13T16:52:25.469Z,90.76
2022-10-13T16:54:51.907Z,90.31
2022-10-13T16:57:18.581Z,89.79
2022-10-13T16:59:45.037Z,90.42
2022-10-13T17:02:15.382Z,89.80
2022-10-13T17:04:42.183Z,89.79
2022-10-13T17:07:08.507Z,90.03
2022-10-13T17:09:34.980Z,90.44
2022-10-13T17:12:02.115Z,90.36
2022-10-13T17:14:28.485Z,90.45
2022-10-13T17:16:57.770Z,90.24
2022-10-13T17:19:24.385Z,90.56
2022-10-13T17:21:50.704Z,90.46
2022-10-13T17:24:17.275Z,90.61
2022-10-13T17:26:43.603Z,90.35
2022-10-13T17:29:10.113Z,90.37
2022-10-13T17:31:36.560Z,90.74
2022-10-13T17:34:02.873Z,90.85
2022-10-13T17:36:34.310Z,91.15
2022-10-13T17:39:06.507Z,91.23
2022-10-13T17:41:33.385Z,91.10
2022-10-13T17:43:59.811Z,90.52
2022-10-13T17:46:38.359Z,90.84
2022-10-13T17:49:07.889Z,90.83
2022-10-13T17:51:34.272Z,91.09
2022-10-13T17:54:00.719Z,90.98
2022-10-13T17:56:27.657Z,91.31
2022-10-13T17:58:54.500Z,91.18
2022-10-13T18:01:23.831Z,91.21
2022-10-13T18:03:52.550Z,91.64
2022-10-13T18:06:19.887Z,91.70
2022-10-13T18:08:46.268Z,91.53
2022-10-13T18:11:15.857Z,90.94
2022-10-13T18:13:43.828Z,91.43
2022-10-13T18:16:12.855Z,91.64
2022-10-13T18:18:39.292Z,90.74
2022-10-13T18:21:07.622Z,91.39
2022-10-13T18:23:35.875Z,91.39
2022-10-13T18:26:12.062Z,91.17
2022-10-13T18:28:45.337Z,91.14
2022-10-13T18:31:24.750Z,90.61
2022-10-13T18:33:52.024Z,90.36
2022-10-13T18:36:28.177Z,89.91
2022-10-13T18:38:56.610Z,90.31
2022-10-13T18:41:24.771Z,90.37
2022-10-13T18:43:52.755Z,89.49
2022-10-13T18:46:19.112Z,90.05
2022-10-13T18:48:45.636Z,90.01
2022-10-13T18:51:17.425Z,90.36
2022-10-13T18:53:46.344Z,90.00
2022-10-13T18:56:14.012Z,89.83
2022-10-13T18:58:40.490Z,89.87
2022-10-13T19:01:19.878Z,89.59
2022-10-13T19:03:53.114Z,88.63
2022-10-13T19:06:30.110Z,89.19
2022-10-13T19:09:08.111Z,88.33
2022-10-13T19:11:35.412Z,88.90
2022-10-13T19:14:02.473Z,89.66
2022-10-13T19:16:31.140Z,89.62
2022-10-13T19:18:58.117Z,89.21
2022-10-13T19:21:25.286Z,88.72
2022-10-13T19:23:51.880Z,89.00
2022-10-13T19:26:22.344Z,88.51
2022-10-13T19:28:48.777Z,88.80
2022-10-13T19:31:18.326Z,88.25
2022-10-13T19:33:47.055Z,88.24
2022-10-13T19:36:44.401Z,88.19
2022-10-13T19:39:18.040Z,88.13
2022-10-13T19:41:45.929Z,87.86
2022-10-13T19:44:13.362Z,88.25
2022-10-13T19:46:42.301Z,87.77
2022-10-13T19:49:09.204Z,87.69
2022-10-13T19:51:36.375Z,87.91
2022-10-13T19:54:03.147Z,88.33
2022-10-13T19:56:31.572Z,87.86
2022-10-13T19:58:58.656Z,87.79
2022-10-13T20:01:25.183Z,87.82
2022-10-13T20:03:52.056Z,87.70
2022-10-13T20:06:20.142Z,87.26
2022-10-13T20:08:47.754Z,88.24
2022-10-13T20:11:23.073Z,88.09
2022-10-13T20:13:50.415Z,87.88
2022-10-13T20:16:19.197Z,88.33
2022-10-13T20:18:45.637Z,88.15
2022-10-13T20:21:13.351Z,88.30
2022-10-13T20:23:40.908Z,88.19
2022-10-13T20:26:10.785Z,88.43
2022-10-13T20:28:43.362Z,88.59
2022-10-13T20:31:12.598Z,88.36
2022-10-13T20:33:39.112Z,88.73
2022-10-13T20:36:08.686Z,88.73
2022-10-13T20:38:35.961Z,88.80
2022-10-13T20:41:10.061Z,88.10
2022-10-13T20:43:36.997Z,88.53
2022-10-13T20:46:06.019Z,88.43
2022-10-13T20:48:57.870Z,88.17
2022-10-13T20:51:22.643Z,88.39
2022-10-13T20:53:49.697Z,88.78
2022-10-13T20:56:24.657Z,88.78
2022-10-13T20:58:51.848Z,88.43
2022-10-13T21:01:20.702Z,88.40
2022-10-13T21:03:51.465Z,88.49
2022-10-13T21:06:17.907Z,88.39
2022-10-13T21:08:45.328Z,88.11
2022-10-13T21:11:13.575Z,88.63
2022-10-13T21:13:41.301Z,88.98
2022-10-13T21:16:10.391Z,88.75
2022-10-13T21:18:37.085Z,88.80
2022-10-13T21:21:08.096Z,89.07
2022-10-13T21:23:34.626Z,88.81
2022-10-13T21:26:02.507Z,88.50
2022-10-13T21:28:29.857Z,88.72
2022-10-13T21:31:04.498Z,88.93
2022-10-13T21:33:33.413Z,88.76
2022-10-13T21:36:05.069Z,88.97
2022-10-13T21:38:31.414Z,89.11
2022-10-13T21:40:57.771Z,88.56
2022-10-13T21:43:24.104Z,88.95
2022-10-13T21:45:50.478Z,88.97
2022-10-13T21:48:16.863Z,88.96
2022-10-13T21:50:43.183Z,89.41
2022-10-13T21:53:09.505Z,89.68
2022-10-13T21:55:35.919Z,89.51
2022-10-13T21:58:05.130Z,89.49
2022-10-13T22:00:33.315Z,89.49
2022-10-13T22:02:59.894Z,89.41
2022-10-13T22:05:26.287Z,89.36
2022-10-13T22:07:53.333Z,89.40
2022-10-13T22:10:19.809Z,89.80
2022-10-13T22:12:46.272Z,89.38
2022-10-13T22:15:12.632Z,89.19
2022-10-13T22:17:39.075Z,89.23
2022-10-13T22:20:05.882Z,89.48
2022-10-13T22:22:32.229Z,89.77
2022-10-13T22:24:58.567Z,90.04
2022-10-13T22:27:24.935Z,90.11
2022-10-13T22:29:52.945Z,90.13
2022-10-13T22:32:19.299Z,90.12
2022-10-13T22:34:45.633Z,90.04
2022-10-13T22:37:11.953Z,89.70
2022-10-13T22:39:38.358Z,90.26
2022-10-13T22:42:04.716Z,90.57
2022-10-13T22:44:31.027Z,89.80
2022-10-13T22:46:57.357Z,89.80
2022-10-13T22:49:23.767Z,89.69
2022-10-13T22:51:50.092Z,90.22
2022-10-13T22:54:16.449Z,90.08
2022-10-13T22:56:43.073Z,90.46
2022-10-13T22:59:11.075Z,90.17
2022-10-13T23:01:37.563Z,90.07
2022-10-13T23:04:04.276Z,90.25
2022-10-13T23:06:33.537Z,90.50
2022-10-13T23:09:05.925Z,90.07
2022-10-13T23:11:33.266Z,89.54
2022-10-13T23:14:01.361Z,89.53
2022-10-13T23:16:27.947Z,89.66
2022-10-13T23:18:54.687Z,89.80
2022-10-13T23:21:23.271Z,89.83
2022-10-13T23:23:57.586Z,89.43
2022-10-13T23:26:24.707Z,89.68
2022-10-13T23:28:51.228Z,89.61
2022-10-13T23:31:18.511Z,89.37
2022-10-13T23:33:45.506Z,89.74
2022-10-13T23:36:20.899Z,89.44
2022-10-13T23:38:47.583Z,89.77
2022-10-13T23:41:15.995Z,89.35
2022-10-13T23:43:43.050Z,89.80
2022-10-13T23:46:10.629Z,89.06
2022-10-13T23:48:38.073Z,89.44
2022-10-13T23:51:13.893Z,89.61
2022-10-13T23:53:41.098Z,89.67
2022-10-13T23:56:08.741Z,89.30
2022-10-13T23:58:37.216Z,89.47
